sensor_id;sensor_type;location;lat;lon;timestamp;temperature;humidity
64715;DHT22;51144;53.002;6.506;2023-05-10T19:27:39;14.30;99.90
64715;DHT22;51144;53.002;6.506;2023-05-10T19:30:06;13.90;99.90
64715;DHT22;51144;53.002;6.506;2023-05-10T19:32:32;13.80;99.90
64715;DHT22;51144;53.002;6.506;2023-05-10T19:34:58;13.70;99.90
64715;DHT22;51144;53.002;6.506;2023-05-10T19:37:23;13.70;99.90
64715;DHT22;51144;53.002;6.506;2023-05-10T19:39:49;13.60;99.90
64715;DHT22;51144;53.002;6.506;2023-05-10T19:42:16;13.60;99.90
64715;DHT22;51144;53.002;6.506;2023-05-10T19:44:41;13.50;99.90
64715;DHT22;51144;53.002;6.506;2023-05-10T19:47:07;13.50;99.90
64715;DHT22;51144;53.002;6.506;2023-05-10T19:49:33;13.40;99.90
64715;DHT22;51144;53.002;6.506;2023-05-10T19:52:01;13.30;99.90
64715;DHT22;51144;53.002;6.506;2023-05-10T19:54:27;13.30;99.90
64715;DHT22;51144;53.002;6.506;2023-05-10T19:56:53;13.30;99.90
64715;DHT22;51144;53.002;6.506;2023-05-10T19:59:18;13.20;99.90
64715;DHT22;51144;53.002;6.506;2023-05-10T20:01:44;13.20;99.90
64715;DHT22;51144;53.002;6.506;2023-05-10T20:04:11;13.20;99.90
64715;DHT22;51144;53.002;6.506;2023-05-10T20:06:36;13.10;99.90
64715;DHT22;51144;53.002;6.506;2023-05-10T20:09:02;13.10;99.90
64715;DHT22;51144;53.002;6.506;2023-05-10T20:11:28;13.00;99.90
64715;DHT22;51144;53.002;6.506;2023-05-10T20:13:54;13.00;99.90
64715;DHT22;51144;53.002;6.506;2023-05-10T20:16:19;13.00;99.90
64715;DHT22;51144;53.002;6.506;2023-05-10T20:18:45;12.90;99.90
64715;DHT22;51144;53.002;6.506;2023-05-10T20:21:11;12.90;99.90
64715;DHT22;51144;53.002;6.506;2023-05-10T20:23:36;12.90;99.90
64715;DHT22;51144;53.002;6.506;2023-05-10T20:26:02;12.90;99.90
64715;DHT22;51144;53.002;6.506;2023-05-10T20:28:28;12.90;99.90
64715;DHT22;51144;53.002;6.506;2023-05-10T20:30:54;12.90;99.90
64715;DHT22;51144;53.002;6.506;2023-05-10T20:33:21;12.80;99.90
64715;DHT22;51144;53.002;6.506;2023-05-10T20:35:47;12.80;99.90
64715;DHT22;51144;53.002;6.506;2023-05-10T20:38:14;12.80;99.90
64715;DHT22;51144;53.002;6.506;2023-05-10T20:40:39;12.70;99.90
64715;DHT22;51144;53.002;6.506;2023-05-10T20:43:05;12.70;99.90
64715;DHT22;51144;53.002;6.506;2023-05-10T20:45:31;12.70;99.90
64715;DHT22;51144;53.002;6.506;2023-05-10T20:47:57;12.70;99.90
64715;DHT22;51144;53.002;6.506;2023-05-10T20:50:22;12.70;99.90
64715;DHT22;51144;53.002;6.506;2023-05-10T20:52:48;12.70;99.90
64715;DHT22;51144;53.002;6.506;2023-05-10T20:55:17;12.70;99.90
64715;DHT22;51144;53.002;6.506;2023-05-10T20:57:43;12.70;99.90
64715;DHT22;51144;53.002;6.506;2023-05-10T21:00:09;12.80;99.90
64715;DHT22;51144;53.002;6.506;2023-05-10T21:02:35;12.70;99.90
64715;DHT22;51144;53.002;6.506;2023-05-10T21:05:01;12.70;99.90
64715;DHT22;51144;53.002;6.506;2023-05-10T21:07:26;12.70;99.90
64715;DHT22;51144;53.002;6.506;2023-05-10T21:09:52;12.80;99.90
64715;DHT22;51144;53.002;6.506;2023-05-10T21:12:18;12.70;99.90
64715;DHT22;51144;53.002;6.506;2023-05-10T21:14:43;12.70;99.90
64715;DHT22;51144;53.002;6.506;2023-05-10T21:17:12;12.70;99.90
64715;DHT22;51144;53.002;6.506;2023-05-10T21:19:37;12.70;99.90
64715;DHT22;51144;53.002;6.506;2023-05-10T21:22:03;12.70;99.90
64715;DHT22;51144;53.002;6.506;2023-05-10T21:24:29;12.70;99.90
64715;DHT22;51144;53.002;6.506;2023-05-10T21:26:54;12.70;99.90
64715;DHT22;51144;53.002;6.506;2023-05-10T21:29:20;12.70;99.90
64715;DHT22;51144;53.002;6.506;2023-05-10T21:31:45;12.70;99.90
64715;DHT22;51144;53.002;6.506;2023-05-10T21:34:11;12.70;99.90
64715;DHT22;51144;53.002;6.506;2023-05-10T21:36:38;12.70;99.90
64715;DHT22;51144;53.002;6.506;2023-05-10T21:39:04;12.70;99.90
64715;DHT22;51144;53.002;6.506;2023-05-10T21:41:29;12.70;99.90
64715;DHT22;51144;53.002;6.506;2023-05-10T21:43:55;12.70;99.90
64715;DHT22;51144;53.002;6.506;2023-05-10T21:46:21;12.70;99.90
64715;DHT22;51144;53.002;6.506;2023-05-10T21:48:47;12.70;99.90
64715;DHT22;51144;53.002;6.506;2023-05-10T21:51:13;12.70;99.90
64715;DHT22;51144;53.002;6.506;2023-05-10T21:53:39;12.70;99.90
64715;DHT22;51144;53.002;6.506;2023-05-10T21:56:05;12.70;99.90
64715;DHT22;51144;53.002;6.506;2023-05-10T21:58:32;12.70;99.90
64715;DHT22;51144;53.002;6.506;2023-05-10T22:00:57;12.70;99.90
64715;DHT22;51144;53.002;6.506;2023-05-10T22:03:23;12.70;99.90
64715;DHT22;51144;53.002;6.506;2023-05-10T22:05:48;12.70;99.90
64715;DHT22;51144;53.002;6.506;2023-05-10T22:08:14;12.70;99.90
64715;DHT22;51144;53.002;6.506;2023-05-10T22:10:40;12.70;99.90
64715;DHT22;51144;53.002;6.506;2023-05-10T22:13:06;12.60;99.90
64715;DHT22;51144;53.002;6.506;2023-05-10T22:15:32;12.60;99.90
64715;DHT22;51144;53.002;6.506;2023-05-10T22:17:58;12.60;99.90
64715;DHT22;51144;53.002;6.506;2023-05-10T22:20:23;12.60;99.90
64715;DHT22;51144;53.002;6.506;2023-05-10T22:22:49;12.60;99.90
64715;DHT22;51144;53.002;6.506;2023-05-10T22:25:15;12.60;99.90
64715;DHT22;51144;53.002;6.506;2023-05-10T22:27:40;12.60;99.90
64715;DHT22;51144;53.002;6.506;2023-05-10T22:30:07;12.50;99.90
64715;DHT22;51144;53.002;6.506;2023-05-10T22:32:32;12.50;99.90
64715;DHT22;51144;53.002;6.506;2023-05-10T22:34:58;12.50;99.90
64715;DHT22;51144;53.002;6.506;2023-05-10T22:37:24;12.50;99.90
64715;DHT22;51144;53.002;6.506;2023-05-10T22:39:49;12.50;99.90
64715;DHT22;51144;53.002;6.506;2023-05-10T22:42:15;12.50;99.90
64715;DHT22;51144;53.002;6.506;2023-05-10T22:44:41;12.50;99.90
64715;DHT22;51144;53.002;6.506;2023-05-10T22:47:07;12.50;99.90
64715;DHT22;51144;53.002;6.506;2023-05-10T22:49:33;12.50;99.90
64715;DHT22;51144;53.002;6.506;2023-05-10T22:51:59;12.50;99.90
64715;DHT22;51144;53.002;6.506;2023-05-10T22:54:26;12.50;99.90
64715;DHT22;51144;53.002;6.506;2023-05-10T22:56:51;12.40;99.90
64715;DHT22;51144;53.002;6.506;2023-05-10T22:59:18;12.40;99.90
64715;DHT22;51144;53.002;6.506;2023-05-10T23:01:44;12.40;99.90
64715;DHT22;51144;53.002;6.506;2023-05-10T23:04:09;12.30;99.90
64715;DHT22;51144;53.002;6.506;2023-05-10T23:06:35;12.30;99.90
64715;DHT22;51144;53.002;6.506;2023-05-10T23:09:00;12.30;99.90
64715;DHT22;51144;53.002;6.506;2023-05-10T23:11:26;12.40;99.90
64715;DHT22;51144;53.002;6.506;2023-05-10T23:13:51;12.40;99.90
64715;DHT22;51144;53.002;6.506;2023-05-10T23:16:17;12.40;99.90
64715;DHT22;51144;53.002;6.506;2023-05-10T23:18:43;12.40;99.90
64715;DHT22;51144;53.002;6.506;2023-05-10T23:21:09;12.30;99.90
64715;DHT22;51144;53.002;6.506;2023-05-10T23:23:34;12.30;99.90
64715;DHT22;51144;53.002;6.506;2023-05-10T23:26:00;12.30;99.90
64715;DHT22;51144;53.002;6.506;2023-05-10T23:28:26;12.30;99.90
64715;DHT22;51144;53.002;6.506;2023-05-10T23:30:56;12.30;99.90
64715;DHT22;51144;53.002;6.506;2023-05-10T23:33:22;12.30;99.90
64715;DHT22;51144;53.002;6.506;2023-05-10T23:35:47;12.30;99.90
64715;DHT22;51144;53.002;6.506;2023-05-10T23:38:13;12.30;99.90
64715;DHT22;51144;53.002;6.506;2023-05-10T23:40:39;12.30;99.90
64715;DHT22;51144;53.002;6.506;2023-05-10T23:43:04;12.30;99.90
64715;DHT22;51144;53.002;6.506;2023-05-10T23:45:31;12.20;99.90
64715;DHT22;51144;53.002;6.506;2023-05-10T23:47:56;12.30;99.90
64715;DHT22;51144;53.002;6.506;2023-05-10T23:50:22;12.20;99.90
64715;DHT22;51144;53.002;6.506;2023-05-10T23:52:48;12.20;99.90
64715;DHT22;51144;53.002;6.506;2023-05-10T23:55:13;12.30;99.90
64715;DHT22;51144;53.002;6.506;2023-05-10T23:57:39;12.30;99.90
